createdAt,value
2022-07-25T00:01:50.345Z,23.72
2022-07-25T00:04:18.760Z,23.69
2022-07-25T00:06:46.714Z,23.69
2022-07-25T00:09:15.078Z,23.69
2022-07-25T00:11:42.381Z,23.67
2022-07-25T00:14:09.996Z,23.70
2022-07-25T00:16:37.504Z,23.67
2022-07-25T00:19:05.171Z,23.63
2022-07-25T00:21:32.782Z,23.62
2022-07-25T00:23:59.870Z,23.59
2022-07-25T00:26:27.176Z,23.56
2022-07-25T00:28:54.305Z,23.55
2022-07-25T00:31:21.387Z,23.55
2022-07-25T00:33:48.667Z,23.55
2022-07-25T00:36:15.660Z,23.55
2022-07-25T00:38:42.622Z,23.56
2022-07-25T00:41:11.134Z,23.55
2022-07-25T00:43:38.291Z,23.55
2022-07-25T00:46:05.440Z,23.55
2022-07-25T00:48:32.851Z,23.52
2022-07-25T00:51:00.398Z,23.51
2022-07-25T00:53:27.354Z,23.53
2022-07-25T00:55:56.678Z,23.53
2022-07-25T00:58:23.752Z,23.50
2022-07-25T01:00:50.668Z,23.48
2022-07-25T01:03:18.339Z,23.45
2022-07-25T01:05:48.017Z,23.41
2022-07-25T01:08:20.504Z,23.38
2022-07-25T01:10:48.581Z,23.35
2022-07-25T01:13:15.976Z,23.34
2022-07-25T01:15:44.084Z,23.31
2022-07-25T01:18:11.176Z,23.33
2022-07-25T01:20:38.185Z,23.31
2022-07-25T01:23:05.493Z,23.30
2022-07-25T01:25:32.474Z,23.28
2022-07-25T01:27:59.452Z,23.29
2022-07-25T01:30:26.946Z,23.28
2022-07-25T01:32:54.262Z,23.28
2022-07-25T01:35:21.404Z,23.27
2022-07-25T01:37:48.775Z,23.18
2022-07-25T01:40:16.149Z,23.20
2022-07-25T01:42:43.733Z,23.20
2022-07-25T01:45:12.169Z,23.19
2022-07-25T01:47:39.492Z,23.18
2022-07-25T01:50:07.013Z,23.16
2022-07-25T01:52:34.435Z,23.13
2022-07-25T01:55:01.400Z,23.15
2022-07-25T01:57:31.275Z,23.15
2022-07-25T01:59:59.258Z,23.11
2022-07-25T02:02:26.588Z,23.11
2022-07-25T02:04:53.673Z,23.08
2022-07-25T02:07:21.102Z,23.08
2022-07-25T02:09:49.339Z,23.04
2022-07-25T02:12:18.143Z,23.01
2022-07-25T02:14:45.534Z,22.99
2022-07-25T02:17:12.550Z,22.98
2022-07-25T02:19:39.483Z,22.97
2022-07-25T02:22:06.958Z,22.94
2022-07-25T02:24:33.933Z,22.93
2022-07-25T02:27:01.040Z,22.91
2022-07-25T02:29:28.271Z,22.92
2022-07-25T02:31:55.222Z,22.90
2022-07-25T02:34:22.266Z,22.88
2022-07-25T02:36:49.733Z,22.85
2022-07-25T02:39:16.819Z,22.83
2022-07-25T02:41:44.726Z,22.80
2022-07-25T02:44:12.465Z,22.78
2022-07-25T02:46:39.518Z,22.74
2022-07-25T02:49:06.639Z,22.71
2022-07-25T02:51:33.908Z,22.68
2022-07-25T02:54:01.048Z,22.65
2022-07-25T02:56:30.264Z,22.62
2022-07-25T02:58:59.470Z,22.56
2022-07-25T03:01:27.112Z,22.54
2022-07-25T03:03:54.183Z,22.52
2022-07-25T03:06:21.661Z,22.50
2022-07-25T03:08:48.679Z,22.47
2022-07-25T03:11:16.911Z,22.44
2022-07-25T03:13:44.159Z,22.40
2022-07-25T03:16:12.333Z,22.38
2022-07-25T03:18:39.462Z,22.33
2022-07-25T03:21:07.182Z,22.28
2022-07-25T03:23:34.391Z,22.22
2022-07-25T03:26:01.287Z,22.18
2022-07-25T03:28:28.665Z,22.15
2022-07-25T03:30:55.717Z,22.10
2022-07-25T03:33:22.768Z,22.04
2022-07-25T03:35:49.992Z,22.00
2022-07-25T03:38:16.944Z,21.95
2022-07-25T03:40:44.022Z,21.94
2022-07-25T03:43:11.346Z,21.93
2022-07-25T03:45:38.352Z,21.92
2022-07-25T03:48:05.693Z,21.91
2022-07-25T03:50:34.134Z,21.91
2022-07-25T03:53:01.131Z,21.87
2022-07-25T03:55:28.458Z,21.81
2022-07-25T03:57:55.722Z,21.72
2022-07-25T04:00:22.979Z,21.66
2022-07-25T04:02:50.170Z,21.63
2022-07-25T04:05:17.511Z,21.63
2022-07-25T04:07:44.659Z,21.60
2022-07-25T04:10:14.398Z,21.57
2022-07-25T04:12:45.700Z,21.53
2022-07-25T04:15:12.825Z,21.59
2022-07-25T04:17:39.958Z,21.61
2022-07-25T04:20:08.626Z,21.55
2022-07-25T04:22:35.839Z,21.55
2022-07-25T04:25:02.913Z,21.55
2022-07-25T04:27:30.431Z,21.54
2022-07-25T04:30:01.226Z,21.52
2022-07-25T04:32:28.911Z,21.55
2022-07-25T04:34:55.995Z,21.57
2022-07-25T04:37:23.580Z,21.55
2022-07-25T04:39:50.479Z,21.50
2022-07-25T04:42:17.844Z,21.46
2022-07-25T04:44:45.059Z,21.48
2022-07-25T04:47:12.023Z,21.53
2022-07-25T04:49:39.021Z,21.60
2022-07-25T04:52:06.379Z,21.64
2022-07-25T04:54:33.314Z,21.70
2022-07-25T04:57:01.492Z,21.70
2022-07-25T04:59:28.733Z,21.80
2022-07-25T05:01:55.729Z,21.88
2022-07-25T05:04:22.759Z,22.00
2022-07-25T05:06:50.093Z,22.15
2022-07-25T05:09:17.023Z,22.29
2022-07-25T05:11:48.655Z,22.48
2022-07-25T05:14:17.903Z,22.48
2022-07-25T05:16:47.878Z,22.58
2022-07-25T05:19:14.878Z,22.68
2022-07-25T05:21:42.140Z,22.71
2022-07-25T05:24:10.751Z,22.79
2022-07-25T05:26:37.719Z,22.96
2022-07-25T05:29:05.086Z,23.03
2022-07-25T05:31:32.078Z,23.36
2022-07-25T05:33:59.053Z,24.17
2022-07-25T05:36:26.384Z,25.02
2022-07-25T05:38:54.224Z,25.38
2022-07-25T05:41:21.491Z,25.54
2022-07-25T05:43:48.973Z,25.81
2022-07-25T05:46:16.323Z,27.02
2022-07-25T05:48:44.422Z,28.94
2022-07-25T05:51:12.627Z,30.61
2022-07-25T05:53:39.850Z,32.04
2022-07-25T05:56:09.013Z,32.84
2022-07-25T05:58:37.396Z,33.78
2022-07-25T06:01:04.638Z,34.66
2022-07-25T06:03:31.727Z,34.80
2022-07-25T06:05:58.976Z,35.53
2022-07-25T06:08:28.800Z,35.02
2022-07-25T06:10:57.781Z,35.14
2022-07-25T06:13:25.855Z,35.36
2022-07-25T06:15:55.092Z,35.76
2022-07-25T06:18:22.605Z,36.78
2022-07-25T06:20:49.950Z,37.66
2022-07-25T06:23:17.468Z,38.29
2022-07-25T06:25:50.034Z,38.11
2022-07-25T06:28:18.180Z,37.79
2022-07-25T06:30:46.151Z,38.24
2022-07-25T06:33:13.857Z,38.59
2022-07-25T06:35:41.102Z,38.99
2022-07-25T06:38:07.996Z,38.40
2022-07-25T06:40:36.391Z,38.61
2022-07-25T06:43:03.796Z,38.83
2022-07-25T06:45:30.915Z,38.94
2022-07-25T06:47:57.862Z,39.18
2022-07-25T06:50:25.446Z,38.90
2022-07-25T06:52:54.512Z,38.25
2022-07-25T06:55:21.837Z,38.38
2022-07-25T06:57:49.162Z,38.30
2022-07-25T07:00:16.311Z,37.99
2022-07-25T07:02:52.104Z,38.03
2022-07-25T07:05:19.568Z,38.23
2022-07-25T07:07:47.949Z,38.06
2022-07-25T07:10:15.642Z,38.07
2022-07-25T07:12:42.992Z,38.08
2022-07-25T07:15:10.301Z,37.57
2022-07-25T07:17:37.335Z,37.39
2022-07-25T07:20:06.512Z,37.44
2022-07-25T07:22:42.953Z,37.36
2022-07-25T07:25:10.530Z,37.31
2022-07-25T07:27:38.124Z,37.65
2022-07-25T07:30:05.590Z,37.62
2022-07-25T07:32:34.067Z,37.25
2022-07-25T07:35:01.130Z,37.20
2022-07-25T07:37:35.784Z,36.90
2022-07-25T07:40:05.821Z,36.95
2022-07-25T07:42:44.313Z,36.67
2022-07-25T07:45:24.621Z,36.65
2022-07-25T07:47:53.480Z,36.90
2022-07-25T07:50:27.497Z,36.99
2022-07-25T07:52:56.047Z,37.26
2022-07-25T07:55:42.230Z,37.10
2022-07-25T07:58:10.142Z,37.04
2022-07-25T08:00:39.702Z,37.00
2022-07-25T08:03:10.041Z,37.14
2022-07-25T08:05:39.141Z,37.22
2022-07-25T08:08:08.868Z,37.39
2022-07-25T08:10:38.664Z,37.53
2022-07-25T08:13:22.679Z,37.22
2022-07-25T08:15:52.567Z,37.20
2022-07-25T08:18:20.325Z,36.74
2022-07-25T08:20:48.619Z,36.56
2022-07-25T08:23:15.735Z,36.67
2022-07-25T08:25:45.178Z,36.38
2022-07-25T08:28:12.645Z,36.24
2022-07-25T08:30:41.179Z,36.34
2022-07-25T08:33:13.285Z,36.39
2022-07-25T08:35:41.881Z,35.49
2022-07-25T08:38:11.657Z,36.44
2022-07-25T08:40:39.009Z,36.46
2022-07-25T08:43:13.866Z,36.40
2022-07-25T08:45:46.028Z,36.46
2022-07-25T08:48:13.184Z,35.70
2022-07-25T08:50:40.468Z,36.49
2022-07-25T08:53:32.126Z,36.59
2022-07-25T08:55:55.057Z,36.44
2022-07-25T08:58:22.438Z,36.34
2022-07-25T09:00:49.623Z,36.00
2022-07-25T09:03:16.728Z,35.68
2022-07-25T09:05:45.333Z,35.37
2022-07-25T09:08:14.697Z,35.40
2022-07-25T09:10:50.244Z,35.43
2022-07-25T09:13:21.891Z,35.56
2022-07-25T09:15:53.983Z,35.41
2022-07-25T09:18:29.740Z,35.41
2022-07-25T09:21:00.872Z,35.26
2022-07-25T09:23:32.099Z,35.22
2022-07-25T09:26:17.735Z,35.08
2022-07-25T09:28:46.535Z,35.20
2022-07-25T09:31:14.545Z,35.08
2022-07-25T09:33:55.378Z,34.79
2022-07-25T09:36:23.032Z,34.90
2022-07-25T09:39:01.434Z,34.63
2022-07-25T09:41:37.038Z,34.48
2022-07-25T09:44:05.423Z,34.38
2022-07-25T09:46:35.148Z,34.22
2022-07-25T09:49:02.274Z,34.14
2022-07-25T09:51:30.695Z,33.98
2022-07-25T09:53:57.929Z,33.80
2022-07-25T09:56:24.883Z,33.62
2022-07-25T09:58:52.934Z,33.56
2022-07-25T10:01:29.076Z,33.50
2022-07-25T10:04:21.007Z,33.40
2022-07-25T10:07:04.243Z,33.21
2022-07-25T10:09:32.376Z,33.07
2022-07-25T10:12:06.398Z,32.71
2022-07-25T10:14:34.426Z,32.62
2022-07-25T10:17:02.148Z,32.53
2022-07-25T10:19:50.798Z,32.23
2022-07-25T10:22:34.239Z,32.10
2022-07-25T10:25:19.735Z,31.80
2022-07-25T10:27:49.141Z,31.90
2022-07-25T10:30:26.580Z,31.85
2022-07-25T10:33:00.692Z,31.96
2022-07-25T10:35:28.626Z,31.98
2022-07-25T10:37:57.777Z,31.88
2022-07-25T10:40:35.467Z,31.91
2022-07-25T10:43:12.672Z,31.80
2022-07-25T10:45:52.040Z,31.77
2022-07-25T10:48:25.452Z,31.86
2022-07-25T10:50:58.344Z,31.97
2022-07-25T10:53:38.449Z,31.91
2022-07-25T10:56:15.884Z,31.90
2022-07-25T10:58:44.184Z,31.86
2022-07-25T11:01:11.659Z,31.88
2022-07-25T11:03:39.363Z,31.96
2022-07-25T11:06:06.818Z,31.99
2022-07-25T11:08:34.564Z,31.91
2022-07-25T11:11:02.214Z,31.78
2022-07-25T11:13:36.233Z,31.83
2022-07-25T11:16:03.210Z,31.90
2022-07-25T11:18:41.114Z,31.88
2022-07-25T11:21:09.449Z,31.86
2022-07-25T11:23:37.118Z,31.85
2022-07-25T11:26:12.135Z,31.74
2022-07-25T11:28:44.249Z,31.70
2022-07-25T11:31:12.503Z,31.74
2022-07-25T11:33:40.817Z,31.83
2022-07-25T11:36:10.776Z,31.84
2022-07-25T11:38:39.038Z,31.85
2022-07-25T11:41:06.627Z,31.86
2022-07-25T11:43:33.894Z,31.83
2022-07-25T11:46:08.355Z,31.80
2022-07-25T11:48:39.195Z,31.73
2022-07-25T11:51:18.650Z,31.63
2022-07-25T11:53:49.758Z,31.75
2022-07-25T11:56:41.303Z,31.81
2022-07-25T11:59:08.140Z,31.87
2022-07-25T12:01:40.760Z,31.82
2022-07-25T12:04:17.292Z,31.82
2022-07-25T12:06:45.757Z,31.90
2022-07-25T12:09:19.162Z,31.85
2022-07-25T12:11:48.474Z,31.84
2022-07-25T12:14:16.338Z,31.78
2022-07-25T12:16:43.599Z,31.83
2022-07-25T12:19:19.425Z,31.80
2022-07-25T12:21:46.846Z,31.88
2022-07-25T12:24:14.454Z,31.86
2022-07-25T12:26:41.648Z,31.88
2022-07-25T12:29:09.397Z,31.90
2022-07-25T12:31:36.645Z,31.86
2022-07-25T12:34:03.714Z,31.90
2022-07-25T12:36:31.120Z,31.88
2022-07-25T12:38:58.535Z,31.88
2022-07-25T12:41:25.518Z,31.92
2022-07-25T12:43:52.726Z,31.96
2022-07-25T12:46:19.909Z,31.99
2022-07-25T12:48:47.309Z,32.01
2022-07-25T12:51:14.637Z,32.08
2022-07-25T12:53:42.603Z,32.15
2022-07-25T12:56:09.870Z,32.20
2022-07-25T12:58:37.694Z,32.20
2022-07-25T13:01:08.435Z,32.25
2022-07-25T13:03:35.460Z,32.30
2022-07-25T13:06:02.949Z,32.29
2022-07-25T13:08:29.952Z,32.30
2022-07-25T13:10:58.208Z,32.38
2022-07-25T13:13:25.573Z,32.44
2022-07-25T13:15:54.329Z,32.47
2022-07-25T13:18:21.427Z,32.51
2022-07-25T13:20:48.681Z,32.59
2022-07-25T13:23:20.513Z,32.64
2022-07-25T13:25:48.103Z,32.66
2022-07-25T13:28:15.086Z,32.72
2022-07-25T13:30:42.748Z,32.70
2022-07-25T13:33:12.695Z,32.66
2022-07-25T13:35:39.993Z,32.67
2022-07-25T13:38:11.674Z,32.66
2022-07-25T13:40:43.290Z,32.62
2022-07-25T13:43:11.241Z,32.66
2022-07-25T13:45:38.728Z,32.71
2022-07-25T13:48:28.460Z,32.73
2022-07-25T13:50:53.932Z,32.79
2022-07-25T13:53:22.294Z,32.78
2022-07-25T13:55:51.738Z,32.76
2022-07-25T13:58:18.683Z,32.79
2022-07-25T14:00:46.118Z,32.76
2022-07-25T14:03:13.101Z,32.81
2022-07-25T14:05:40.419Z,32.77
2022-07-25T14:08:08.398Z,32.80
2022-07-25T14:10:35.911Z,32.80
2022-07-25T14:13:03.066Z,32.77
2022-07-25T14:15:31.421Z,32.79
2022-07-25T14:18:01.706Z,32.76
2022-07-25T14:20:29.021Z,32.76
2022-07-25T14:22:56.311Z,32.78
2022-07-25T14:25:23.270Z,32.78
2022-07-25T14:27:50.332Z,32.82
2022-07-25T14:30:17.756Z,32.85
2022-07-25T14:32:45.064Z,32.91
2022-07-25T14:35:12.236Z,32.93
2022-07-25T14:37:39.727Z,32.92
2022-07-25T14:40:07.564Z,32.89
2022-07-25T14:42:34.474Z,32.92
2022-07-25T14:45:02.093Z,32.93
2022-07-25T14:47:30.529Z,32.92
2022-07-25T14:49:57.863Z,32.92
2022-07-25T14:52:25.197Z,32.94
2022-07-25T14:54:52.082Z,32.96
2022-07-25T14:57:19.105Z,32.97
2022-07-25T14:59:46.554Z,32.96
2022-07-25T15:02:13.561Z,32.98
2022-07-25T15:04:40.672Z,32.99
2022-07-25T15:07:07.988Z,32.98
2022-07-25T15:09:34.970Z,32.99
2022-07-25T15:12:01.965Z,33.02
2022-07-25T15:14:30.553Z,33.02
2022-07-25T15:16:57.571Z,33.02
2022-07-25T15:19:25.898Z,33.01
2022-07-25T15:21:53.781Z,33.04
2022-07-25T15:24:23.517Z,33.05
2022-07-25T15:26:53.002Z,32.72
2022-07-25T15:29:20.834Z,33.00
2022-07-25T15:31:49.026Z,33.03
2022-07-25T15:34:16.456Z,33.06
2022-07-25T15:36:43.440Z,33.09
2022-07-25T15:39:10.863Z,33.08
2022-07-25T15:41:38.502Z,33.08
2022-07-25T15:44:05.628Z,33.05
2022-07-25T15:46:33.020Z,33.04
2022-07-25T15:49:00.781Z,33.05
2022-07-25T15:51:27.870Z,33.03
2022-07-25T15:53:54.884Z,33.01
2022-07-25T15:56:23.280Z,33.01
2022-07-25T15:58:50.383Z,33.02
2022-07-25T16:01:17.436Z,33.01
2022-07-25T16:03:46.960Z,32.99
2022-07-25T16:06:18.844Z,32.97
2022-07-25T16:08:47.614Z,32.95
2022-07-25T16:11:48.263Z,32.89
2022-07-25T16:14:18.079Z,32.88
2022-07-25T16:16:45.163Z,32.89
2022-07-25T16:19:12.288Z,32.86
2022-07-25T16:21:40.088Z,32.88
2022-07-25T16:24:11.481Z,32.84
2022-07-25T16:26:41.368Z,32.84
2022-07-25T16:29:08.974Z,32.83
2022-07-25T16:31:36.151Z,32.83
2022-07-25T16:34:03.476Z,32.81
2022-07-25T16:36:30.689Z,32.79
2022-07-25T16:38:57.989Z,32.76
2022-07-25T16:41:25.287Z,32.71
2022-07-25T16:43:52.307Z,32.68
2022-07-25T16:46:19.847Z,32.66
2022-07-25T16:48:47.476Z,32.64
2022-07-25T16:51:14.853Z,32.60
2022-07-25T16:53:41.862Z,32.59
2022-07-25T16:56:09.238Z,32.56
2022-07-25T16:58:36.337Z,32.54
2022-07-25T17:01:03.472Z,32.52
2022-07-25T17:03:30.797Z,32.48
2022-07-25T17:05:58.036Z,32.47
2022-07-25T17:08:26.426Z,32.43
2022-07-25T17:10:55.490Z,32.42
2022-07-25T17:13:22.629Z,32.40
2022-07-25T17:15:49.746Z,32.37
2022-07-25T17:18:17.692Z,32.35
2022-07-25T17:20:44.636Z,32.33
2022-07-25T17:23:11.848Z,32.28
2022-07-25T17:25:41.205Z,32.24
2022-07-25T17:28:09.060Z,32.22
2022-07-25T17:30:36.079Z,32.18
2022-07-25T17:33:04.004Z,32.16
2022-07-25T17:35:31.759Z,32.14
2022-07-25T17:37:58.805Z,32.11
2022-07-25T17:40:26.342Z,32.08
2022-07-25T17:42:53.337Z,32.05
2022-07-25T17:45:20.334Z,32.00
2022-07-25T17:47:47.962Z,31.97
2022-07-25T17:50:16.978Z,31.92
2022-07-25T17:52:45.165Z,31.86
2022-07-25T17:55:13.647Z,31.83
2022-07-25T17:57:43.157Z,31.79
2022-07-25T18:00:12.042Z,31.74
2022-07-25T18:02:42.775Z,31.67
2022-07-25T18:05:10.046Z,31.65
2022-07-25T18:07:39.272Z,31.59
2022-07-25T18:10:07.468Z,31.53
2022-07-25T18:12:34.562Z,31.49
2022-07-25T18:15:02.631Z,31.43
2022-07-25T18:17:30.604Z,31.36
2022-07-25T18:19:57.771Z,31.30
2022-07-25T18:22:24.790Z,31.26
2022-07-25T18:24:52.073Z,31.19
2022-07-25T18:27:19.248Z,31.16
2022-07-25T18:29:47.057Z,31.11
2022-07-25T18:32:14.669Z,31.02
2022-07-25T18:34:41.605Z,30.97
2022-07-25T18:37:08.570Z,30.92
2022-07-25T18:39:35.965Z,30.87
2022-07-25T18:42:03.083Z,30.84
2022-07-25T18:44:30.337Z,30.80
2022-07-25T18:46:58.453Z,30.74
2022-07-25T18:49:27.179Z,30.70
2022-07-25T18:51:54.355Z,30.65
2022-07-25T18:54:21.752Z,30.58
2022-07-25T18:56:49.096Z,30.54
2022-07-25T18:59:16.406Z,30.51
2022-07-25T19:01:44.495Z,30.47
2022-07-25T19:04:12.400Z,30.44
2022-07-25T19:06:40.428Z,30.39
2022-07-25T19:09:10.030Z,30.35
2022-07-25T19:11:42.212Z,30.31
2022-07-25T19:14:14.174Z,30.27
2022-07-25T19:16:41.512Z,30.25
2022-07-25T19:19:09.955Z,30.20
2022-07-25T19:21:38.346Z,30.17
2022-07-25T19:24:06.223Z,30.11
2022-07-25T19:26:33.914Z,30.09
2022-07-25T19:29:00.958Z,30.04
2022-07-25T19:31:29.420Z,29.96
2022-07-25T19:33:59.688Z,29.93
2022-07-25T19:36:26.661Z,29.89
2022-07-25T19:38:53.680Z,29.85
2022-07-25T19:41:20.992Z,29.80
2022-07-25T19:43:48.011Z,29.73
2022-07-25T19:46:15.219Z,29.72
2022-07-25T19:48:44.218Z,29.66
2022-07-25T19:51:12.298Z,29.61
2022-07-25T19:53:39.324Z,29.57
2022-07-25T19:56:09.303Z,29.51
2022-07-25T19:58:41.135Z,29.48
2022-07-25T20:01:11.673Z,29.42
2022-07-25T20:03:39.051Z,29.36
2022-07-25T20:06:09.769Z,29.31
2022-07-25T20:08:39.850Z,29.27
2022-07-25T20:11:07.985Z,29.21
2022-07-25T20:13:36.925Z,29.19
2022-07-25T20:16:04.988Z,29.13
2022-07-25T20:18:35.125Z,29.08
2022-07-25T20:21:04.793Z,29.05
2022-07-25T20:23:32.378Z,28.99
2022-07-25T20:26:01.239Z,28.98
2022-07-25T20:28:28.924Z,28.95
2022-07-25T20:30:57.425Z,28.89
2022-07-25T20:33:27.288Z,28.84
2022-07-25T20:35:55.764Z,28.78
2022-07-25T20:38:28.745Z,28.71
2022-07-25T20:40:59.016Z,28.66
2022-07-25T20:43:27.276Z,28.61
2022-07-25T20:45:57.998Z,28.58
2022-07-25T20:48:25.117Z,28.54
2022-07-25T20:50:52.850Z,28.47
2022-07-25T20:53:19.885Z,28.45
2022-07-25T20:55:48.283Z,28.45
2022-07-25T20:58:15.939Z,28.42
2022-07-25T21:00:43.122Z,28.38
2022-07-25T21:03:11.737Z,28.36
2022-07-25T21:05:39.672Z,28.33
2022-07-25T21:08:07.451Z,28.27
2022-07-25T21:10:34.756Z,28.26
2022-07-25T21:13:02.190Z,28.23
2022-07-25T21:15:30.926Z,28.21
2022-07-25T21:17:58.182Z,28.18
2022-07-25T21:20:25.463Z,28.19
2022-07-25T21:22:55.563Z,28.17
2022-07-25T21:25:22.765Z,28.21
2022-07-25T21:27:50.223Z,28.21
2022-07-25T21:30:17.271Z,28.17
2022-07-25T21:32:45.051Z,28.22
2022-07-25T21:35:13.051Z,28.24
2022-07-25T21:37:41.999Z,28.28
2022-07-25T21:40:10.587Z,28.25
2022-07-25T21:42:38.456Z,28.25
2022-07-25T21:45:07.262Z,28.24
2022-07-25T21:47:37.451Z,28.24
2022-07-25T21:50:24.811Z,28.23
2022-07-25T21:52:52.634Z,28.22
2022-07-25T21:55:21.776Z,28.24
2022-07-25T21:57:51.288Z,28.20
2022-07-25T22:00:19.425Z,28.17
2022-07-25T22:03:02.030Z,28.09
2022-07-25T22:05:29.042Z,28.07
2022-07-25T22:07:56.293Z,28.06
2022-07-25T22:10:23.332Z,28.03
2022-07-25T22:12:50.409Z,28.04
2022-07-25T22:15:17.830Z,28.04
2022-07-25T22:17:49.623Z,28.03
2022-07-25T22:20:20.681Z,27.70
2022-07-25T22:22:48.684Z,27.91
2022-07-25T22:25:16.805Z,27.87
2022-07-25T22:27:44.733Z,27.86
2022-07-25T22:30:18.185Z,27.84
2022-07-25T22:32:48.888Z,27.79
2022-07-25T22:35:16.265Z,27.75
2022-07-25T22:37:44.218Z,27.69
2022-07-25T22:40:12.093Z,27.66
2022-07-25T22:42:39.112Z,27.63
2022-07-25T22:45:06.807Z,27.61
2022-07-25T22:47:35.506Z,27.56
2022-07-25T22:50:05.469Z,27.56
2022-07-25T22:52:32.483Z,27.57
2022-07-25T22:54:59.798Z,27.56
2022-07-25T22:57:27.404Z,27.55
2022-07-25T22:59:54.387Z,27.55
2022-07-25T23:02:21.708Z,27.54
2022-07-25T23:04:48.743Z,27.49
2022-07-25T23:07:15.697Z,27.45
2022-07-25T23:09:43.683Z,27.40
2022-07-25T23:12:11.671Z,27.38
2022-07-25T23:14:38.733Z,27.36
2022-07-25T23:17:18.061Z,27.32
2022-07-25T23:19:49.288Z,27.22
2022-07-25T23:22:20.744Z,27.15
2022-07-25T23:24:48.452Z,27.12
2022-07-25T23:27:15.754Z,27.11
2022-07-25T23:29:43.180Z,27.03
2022-07-25T23:32:10.213Z,26.98
2022-07-25T23:34:37.477Z,26.95
2022-07-25T23:37:05.144Z,26.83
2022-07-25T23:39:33.784Z,26.76
2022-07-25T23:42:01.565Z,26.66
2022-07-25T23:44:29.043Z,26.56
2022-07-25T23:46:57.005Z,26.52
2022-07-25T23:49:24.517Z,26.44
2022-07-25T23:51:52.174Z,26.35
2022-07-25T23:54:19.706Z,26.33
2022-07-25T23:56:47.057Z,26.30
2022-07-25T23:59:17.966Z,26.26
